Time,TemperatureF,DewpointF,PressureIn,WindDirection,WindDirectionDegrees,WindSpeedMPH,WindSpeedGustMPH,Humidity,HourlyPrecipIn,Conditions,Clouds,dailyrainin,SoftwareType,DateUTC
2013-11-10 00:13:00,45.0,34.0,29.98,West,270,0.0,0.0,65,0.00,,,0.00,,2013-11-10 05:13:00,
2013-11-10 00:23:00,45.0,34.0,29.98,West,270,0.0,0.0,65,0.00,,,0.00,,2013-11-10 05:23:00,
2013-11-10 00:43:00,45.0,34.0,29.96,West,261,0.0,0.0,66,0.00,,,0.00,,2013-11-10 05:43:00,
2013-11-10 00:54:00,45.0,35.0,29.95,WSW,255,0.0,0.0,67,0.00,,,0.00,,2013-11-10 05:54:00,
2013-11-10 01:22:00,45.0,35.0,29.94,WSW,252,0.0,0.0,68,0.00,,,0.00,,2013-11-10 06:22:00,
2013-11-10 01:42:00,44.0,34.0,29.93,SSE,167,0.0,0.0,69,0.00,,,0.00,,2013-11-10 06:42:00,
2013-11-10 01:52:00,44.0,35.0,29.92,SSE,148,0.0,0.0,70,0.00,,,0.00,,2013-11-10 06:52:00,
2013-11-10 02:12:00,44.0,35.0,29.92,WNW,300,0.0,0.0,70,0.00,,,0.00,,2013-11-10 07:12:00,
2013-11-10 02:22:00,44.0,35.0,29.92,WNW,292,0.0,0.0,70,0.00,,,0.00,,2013-11-10 07:22:00,
2013-11-10 02:43:00,44.0,35.0,29.92,WSW,238,0.0,0.0,71,0.00,,,0.00,,2013-11-10 07:43:00,
2013-11-10 02:52:00,44.0,35.0,29.91,West,259,0.0,0.0,71,0.00,,,0.00,,2013-11-10 07:52:00,
2013-11-10 03:12:00,44.0,35.0,29.91,WNW,295,0.0,0.0,71,0.00,,,0.00,,2013-11-10 08:12:00,
2013-11-10 03:22:00,44.0,35.0,29.91,WNW,294,0.0,0.0,71,0.00,,,0.00,,2013-11-10 08:22:00,
2013-11-10 03:42:00,43.0,34.0,29.89,WNW,284,0.0,0.0,71,0.00,,,0.00,,2013-11-10 08:42:00,
2013-11-10 03:52:00,43.0,34.0,29.89,WNW,284,0.0,0.0,71,0.00,,,0.00,,2013-11-10 08:52:00,
2013-11-10 04:22:00,43.0,35.0,29.89,WNW,285,0.0,0.0,72,0.00,,,0.00,,2013-11-10 09:22:00,
2013-11-10 04:42:00,42.0,34.0,29.89,WNW,288,0.0,0.0,73,0.00,,,0.00,,2013-11-10 09:42:00,
2013-11-10 04:53:00,42.0,34.0,29.88,WNW,288,0.0,0.0,73,0.00,,,0.00,,2013-11-10 09:53:00,
2013-11-10 05:13:00,41.0,34.0,29.88,WNW,288,0.0,0.0,75,0.00,,,0.00,,2013-11-10 10:13:00,
2013-11-10 05:23:00,41.0,34.0,29.88,NW,313,0.0,0.0,75,0.00,,,0.00,,2013-11-10 10:23:00,
2013-11-10 05:42:00,41.0,34.0,29.88,NW,313,0.0,0.0,76,0.00,,,0.00,,2013-11-10 10:42:00,
2013-11-10 05:53:00,41.0,34.0,29.88,NW,313,0.0,0.0,76,0.00,,,0.00,,2013-11-10 10:53:00,
2013-11-10 06:12:00,41.0,34.0,29.88,NW,313,0.0,0.0,76,0.00,,,0.00,,2013-11-10 11:12:00,
2013-11-10 06:22:00,41.0,34.0,29.88,NW,313,0.0,0.0,76,0.00,,,0.00,,2013-11-10 11:22:00,
2013-11-10 06:43:00,40.0,33.0,29.87,NW,313,0.0,0.0,76,0.00,,,0.00,,2013-11-10 11:43:00,
2013-11-10 06:52:00,40.0,33.0,29.87,NW,313,0.0,0.0,76,0.00,,,0.00,,2013-11-10 11:52:00,
2013-11-10 07:12:00,40.0,33.0,29.87,NW,313,0.0,0.0,77,0.00,,,0.00,,2013-11-10 12:12:00,
2013-11-10 07:22:00,39.0,33.0,29.87,NW,313,0.0,0.0,79,0.00,,,0.00,,2013-11-10 12:22:00,
2013-11-10 07:42:00,39.0,33.0,29.87,NW,313,0.0,0.0,80,0.00,,,0.00,,2013-11-10 12:42:00,
2013-11-10 07:52:00,39.0,34.0,29.88,NW,313,0.0,0.0,81,0.00,,,0.00,,2013-11-10 12:52:00,
2013-11-10 08:11:00,39.0,34.0,29.87,South,190,0.0,0.0,82,0.00,,,0.00,,2013-11-10 13:11:00,
2013-11-10 08:22:00,41.0,36.0,29.87,West,276,0.0,0.0,82,0.00,,,0.00,,2013-11-10 13:22:00,
2013-11-10 08:42:00,42.0,34.0,29.87,West,266,0.0,0.0,74,0.00,,,0.00,,2013-11-10 13:42:00,
2013-11-10 08:52:00,43.0,35.0,29.86,West,265,0.0,0.0,72,0.00,,,0.00,,2013-11-10 13:52:00,
2013-11-10 09:11:00,44.0,35.0,29.86,West,264,0.0,0.0,71,0.00,,,0.00,,2013-11-10 14:11:00,
2013-11-10 09:21:00,45.0,35.0,29.86,West,264,0.0,0.0,68,0.00,,,0.00,,2013-11-10 14:21:00,
2013-11-10 09:42:00,46.0,35.0,29.85,West,263,0.0,0.0,64,0.00,,,0.00,,2013-11-10 14:42:00,
2013-11-10 09:52:00,49.0,35.0,29.85,WSW,248,0.0,0.0,58,0.00,,,0.00,,2013-11-10 14:52:00,
2013-11-10 10:11:00,50.0,34.0,29.84,South,188,0.0,0.0,55,0.00,,,0.00,,2013-11-10 15:11:00,
2013-11-10 10:22:00,53.0,35.0,29.83,WNW,288,0.0,0.0,50,0.00,,,0.00,,2013-11-10 15:22:00,
2013-11-10 10:43:00,55.0,36.0,29.83,NW,311,0.0,0.0,49,0.00,,,0.00,,2013-11-10 15:43:00,
2013-11-10 10:54:00,57.0,36.0,29.82,NW,317,0.0,0.0,45,0.00,,,0.00,,2013-11-10 15:54:00,
2013-11-10 11:12:00,58.0,36.0,29.81,West,269,0.0,0.0,44,0.00,,,0.00,,2013-11-10 16:12:00,
2013-11-10 11:23:00,58.0,35.0,29.81,WNW,284,0.0,0.0,42,0.00,,,0.00,,2013-11-10 16:23:00,
2013-11-10 11:42:00,58.0,34.0,29.80,WNW,296,0.0,0.0,41,0.00,,,0.00,,2013-11-10 16:42:00,
2013-11-10 11:53:00,59.0,33.0,29.80,ENE,76,0.0,0.0,38,0.00,,,0.00,,2013-11-10 16:53:00,
2013-11-10 12:12:00,58.0,33.0,29.80,SW,215,0.0,0.0,38,0.00,,,0.00,,2013-11-10 17:12:00,
2013-11-10 12:23:00,59.0,34.0,29.79,SW,219,0.0,0.0,39,0.00,,,0.00,,2013-11-10 17:23:00,
2013-11-10 12:43:00,59.0,33.0,29.78,WSW,250,0.0,0.0,37,0.00,,,0.00,,2013-11-10 17:43:00,
2013-11-10 12:52:00,59.0,33.0,29.78,SW,218,0.0,0.0,38,0.00,,,0.00,,2013-11-10 17:52:00,
2013-11-10 13:13:00,59.0,32.0,29.77,West,263,0.0,0.0,36,0.00,,,0.00,,2013-11-10 18:13:00,
2013-11-10 13:24:00,58.0,33.0,29.78,NW,315,0.0,0.0,38,0.00,,,0.00,,2013-11-10 18:24:00,
2013-11-10 13:42:00,58.0,33.0,29.78,WNW,292,0.0,0.0,38,0.00,,,0.00,,2013-11-10 18:42:00,
2013-11-10 13:52:00,56.0,37.0,29.81,NW,316,0.0,0.0,48,0.00,,,0.00,,2013-11-10 18:52:00,
2013-11-10 14:11:00,51.0,40.0,29.82,WNW,286,0.0,0.0,65,0.00,,,0.00,,2013-11-10 19:11:00,
2013-11-10 14:22:00,49.0,39.0,29.84,WNW,288,0.0,0.0,68,0.00,,,0.00,,2013-11-10 19:22:00,
2013-11-10 14:42:00,48.0,38.0,29.85,NW,313,0.0,0.0,68,0.00,,,0.00,,2013-11-10 19:42:00,
2013-11-10 14:52:00,48.0,38.0,29.86,West,275,0.0,0.0,68,0.00,,,0.00,,2013-11-10 19:52:00,
2013-11-10 15:11:00,48.0,38.0,29.88,WNW,290,0.0,0.0,68,0.00,,,0.00,,2013-11-10 20:11:00,
2013-11-10 15:22:00,47.0,37.0,29.88,WNW,292,0.0,0.0,67,0.00,,,0.00,,2013-11-10 20:22:00,
2013-11-10 15:42:00,48.0,37.0,29.88,WNW,288,0.0,0.0,66,0.00,,,0.00,,2013-11-10 20:42:00,
2013-11-10 15:53:00,48.0,36.0,29.88,WNW,284,0.0,0.0,62,0.00,,,0.00,,2013-11-10 20:53:00,
2013-11-10 16:11:00,48.0,34.0,29.88,WNW,285,0.0,0.0,59,0.00,,,0.00,,2013-11-10 21:11:00,
2013-11-10 16:22:00,48.0,35.0,29.89,West,280,0.0,0.0,61,0.00,,,0.00,,2013-11-10 21:22:00,
2013-11-10 16:43:00,48.0,34.0,29.89,WNW,291,0.0,0.0,59,0.00,,,0.00,,2013-11-10 21:43:00,
2013-11-10 16:55:00,48.0,34.0,29.89,WNW,295,0.0,0.0,59,0.00,,,0.00,,2013-11-10 21:55:00,
2013-11-10 17:13:00,47.0,34.0,29.90,WNW,292,0.0,0.0,60,0.00,,,0.00,,2013-11-10 22:13:00,
2013-11-10 17:23:00,47.0,34.0,29.91,NW,306,0.0,0.0,61,0.00,,,0.00,,2013-11-10 22:23:00,
2013-11-10 17:43:00,47.0,34.0,29.91,NW,307,0.0,0.0,61,0.00,,,0.00,,2013-11-10 22:43:00,
2013-11-10 17:54:00,47.0,35.0,29.92,North,350,0.0,0.0,62,0.00,,,0.00,,2013-11-10 22:54:00,
2013-11-10 18:12:00,47.0,35.0,29.92,West,277,0.0,0.0,62,0.00,,,0.00,,2013-11-10 23:12:00,
2013-11-10 18:22:00,47.0,34.0,29.93,West,275,0.0,0.0,61,0.00,,,0.00,,2013-11-10 23:22:00,
2013-11-10 18:43:00,47.0,33.0,29.94,NW,314,0.0,0.0,58,0.00,,,0.00,,2013-11-10 23:43:00,
2013-11-10 18:53:00,47.0,32.0,29.94,WSW,241,0.0,0.0,56,0.00,,,0.00,,2013-11-10 23:53:00,
2013-11-10 19:11:00,48.0,32.0,29.94,NW,307,0.0,0.0,54,0.00,,,0.00,,2013-11-11 00:11:00,
2013-11-10 19:22:00,48.0,31.0,29.95,WNW,283,0.0,0.0,52,0.00,,,0.00,,2013-11-11 00:22:00,
2013-11-10 19:42:00,48.0,31.0,29.95,SW,229,0.0,0.0,51,0.00,,,0.00,,2013-11-11 00:42:00,
2013-11-10 19:52:00,48.0,31.0,29.95,WSW,238,0.0,0.0,51,0.00,,,0.00,,2013-11-11 00:52:00,
2013-11-10 20:11:00,48.0,31.0,29.95,North,351,0.0,0.0,51,0.00,,,0.00,,2013-11-11 01:11:00,
2013-11-10 20:22:00,47.0,29.0,29.95,WNW,298,0.0,0.0,50,0.00,,,0.00,,2013-11-11 01:22:00,
2013-11-10 20:42:00,47.0,29.0,29.96,WNW,290,0.0,0.0,50,0.00,,,0.00,,2013-11-11 01:42:00,
2013-11-10 20:52:00,48.0,30.0,29.97,WNW,285,0.0,0.0,50,0.00,,,0.00,,2013-11-11 01:52:00,
2013-11-10 21:11:00,48.0,30.0,29.97,NW,319,0.0,0.0,50,0.00,,,0.00,,2013-11-11 02:11:00,
2013-11-10 21:22:00,48.0,30.0,29.98,WSW,254,0.0,0.0,49,0.00,,,0.00,,2013-11-11 02:22:00,
2013-11-10 21:42:00,48.0,30.0,29.98,West,281,0.0,0.0,49,0.00,,,0.00,,2013-11-11 02:42:00,
2013-11-10 21:52:00,48.0,30.0,29.98,South,182,0.0,0.0,49,0.00,,,0.00,,2013-11-11 02:52:00,
2013-11-10 22:22:00,47.0,29.0,29.98,NW,304,0.0,0.0,50,0.00,,,0.00,,2013-11-11 03:22:00,
2013-11-10 22:43:00,47.0,29.0,29.98,NW,310,0.0,0.0,50,0.00,,,0.00,,2013-11-11 03:43:00,
2013-11-10 22:55:00,47.0,30.0,29.98,WNW,302,0.0,0.0,51,0.00,,,0.00,,2013-11-11 03:55:00,
2013-11-10 23:14:00,47.0,30.0,30.00,WNW,284,0.0,0.0,51,0.00,,,0.00,,2013-11-11 04:14:00,
2013-11-10 23:24:00,47.0,30.0,30.00,NNW,330,0.0,0.0,51,0.00,,,0.00,,2013-11-11 04:24:00,
2013-11-10 23:43:00,47.0,30.0,30.01,WNW,296,0.0,0.0,51,0.00,,,0.00,,2013-11-11 04:43:00,
2013-11-10 23:53:00,47.0,30.0,30.01,WNW,282,0.0,0.0,52,0.00,,,0.00,,2013-11-11 04:53:00,